K2DP

Dare County Gunnery Range Airport

North Carolina, USA
METAR K2DP 181256Z AUTO 36010KT 10SM CLR 05/01 A3009 RMK AO2 SLPNO T00470012
Observed Flight Rules
Dec-18 @ 12:56 UTC (46 minutes ago) Visual Flight Rules
Wind Visibility Clouds
360° at 10 knots 10 miles
  • Clear skies
Temperatures Readings
Current 5°C / 41°F
Dewpoint 1°C / 34°F
Humidity 76%
Altimeter 30.09" Hg
Pressure 1019 hPa
Elevation 3
METAR K2DP 181256Z AUTO 36010KT 10SM CLR 05/01 A3009 RMK AO2 SLPNO T00470012
Observed Flight Rules
Dec-18 @ 12:56 UTC
(46 minutes ago)
VFR
Wind Visibility
360° at 10 knots 10 miles
Clouds
  • Clear skies
Temperature Dewpoint
5°C / 41°F 1°C / 34°F
Humidity Altimeter Pressure
76% 30.09" Hg 1019 hPa